createdAt,value
2023-01-11T00:01:00.910Z,96529.41
2023-01-11T00:03:30.020Z,96528.53
2023-01-11T00:05:57.877Z,96526.13
2023-01-11T00:08:25.841Z,96527.66
2023-01-11T00:10:53.283Z,96510.13
2023-01-11T00:13:19.899Z,96513.63
2023-01-11T00:15:46.522Z,96508.31
2023-01-11T00:18:13.189Z,96496.09
2023-01-11T00:20:40.803Z,96496.03
2023-01-11T00:23:08.115Z,96490.72
2023-01-11T00:25:35.475Z,96492.50
2023-01-11T00:28:02.066Z,96490.81
2023-01-11T00:30:28.661Z,96487.19
2023-01-11T00:32:59.359Z,96483.78
2023-01-11T00:35:27.010Z,96474.06
2023-01-11T00:37:54.491Z,96469.59
2023-01-11T00:40:21.754Z,96473.19
2023-01-11T00:43:06.742Z,96467.88
2023-01-11T00:45:52.162Z,96464.66
2023-01-11T00:48:18.811Z,96466.25
2023-01-11T00:50:45.352Z,96465.34
2023-01-11T00:53:11.974Z,96467.13
2023-01-11T00:55:38.660Z,96466.19
2023-01-11T00:58:05.534Z,96467.13
2023-01-11T01:00:32.533Z,96463.63
2023-01-11T01:02:59.214Z,96465.41
2023-01-11T01:05:25.898Z,96463.63
2023-01-11T01:07:52.924Z,96466.25
2023-01-11T01:10:29.405Z,96468.06
2023-01-11T01:13:14.334Z,96455.19
2023-01-11T01:15:41.067Z,96465.41
2023-01-11T01:18:09.252Z,96456.59
2023-01-11T01:20:35.924Z,96454.06
2023-01-11T01:23:02.452Z,96454.91
2023-01-11T01:25:29.384Z,96455.75
2023-01-11T01:27:56.026Z,96455.75
2023-01-11T01:30:22.662Z,96458.41
2023-01-11T01:32:49.810Z,96450.66
2023-01-11T01:35:16.441Z,96455.81
2023-01-11T01:37:44.867Z,96452.53
2023-01-11T01:40:12.116Z,96461.13
2023-01-11T01:42:38.764Z,96455.81
2023-01-11T01:45:24.521Z,96461.13
2023-01-11T01:48:00.330Z,96456.88
2023-01-11T01:50:32.059Z,96458.69
2023-01-11T01:53:10.307Z,96459.53
2023-01-11T01:55:40.608Z,96452.53
2023-01-11T01:58:10.596Z,96450.72
2023-01-11T02:00:41.365Z,96449.13
2023-01-11T02:03:09.415Z,96445.50
2023-01-11T02:05:36.020Z,96439.34
2023-01-11T02:08:05.440Z,96431.41
2023-01-11T02:10:32.625Z,96432.34
2023-01-11T02:13:05.448Z,96426.19
2023-01-11T02:15:32.815Z,96429.69
2023-01-11T02:17:59.354Z,96420.97
2023-01-11T02:20:37.757Z,96420.88
2023-01-11T02:23:41.168Z,96420.88
2023-01-11T02:27:15.579Z,96408.94
2023-01-11T02:29:54.343Z,96414.75
2023-01-11T02:32:39.824Z,96401.56
2023-01-11T02:35:34.955Z,96401.56
2023-01-11T02:38:14.381Z,96404.22
2023-01-11T02:40:52.565Z,96397.22
2023-01-11T02:43:45.369Z,96398.94
2023-01-11T02:46:18.164Z,96389.25
2023-01-11T02:48:59.907Z,96384.91
2023-01-11T02:51:34.102Z,96382.34
2023-01-11T02:54:09.024Z,96375.34
2023-01-11T02:56:39.296Z,96374.41
2023-01-11T02:59:09.368Z,96374.47
2023-01-11T03:01:51.584Z,96375.34
2023-01-11T03:04:33.671Z,96380.66
2023-01-11T03:07:46.093Z,96377.25
2023-01-11T03:10:54.773Z,96379.78
2023-01-11T03:13:24.176Z,96376.22
2023-01-11T03:16:08.748Z,96368.41
2023-01-11T03:18:44.337Z,96363.03
2023-01-11T03:21:33.423Z,96356.91
2023-01-11T03:24:05.732Z,96350.84
2023-01-11T03:26:54.633Z,96343.72
2023-01-11T03:29:33.422Z,96345.53
2023-01-11T03:32:18.517Z,96338.44
2023-01-11T03:35:10.903Z,96331.44
2023-01-11T03:37:41.467Z,96332.28
2023-01-11T03:40:18.206Z,96330.56
2023-01-11T03:43:06.356Z,96325.56
2023-01-11T03:45:36.061Z,96320.94
2023-01-11T03:48:05.130Z,96321.78
2023-01-11T03:50:33.494Z,96313.81
2023-01-11T03:53:01.921Z,96315.63
2023-01-11T03:55:30.437Z,96308.53
2023-01-11T03:57:59.932Z,96312.09
2023-01-11T04:00:27.995Z,96310.31
2023-01-11T04:02:54.540Z,96312.97
2023-01-11T04:05:22.097Z,96313.06
2023-01-11T04:07:48.683Z,96306.81
2023-01-11T04:10:15.528Z,96312.09
2023-01-11T04:12:42.717Z,96308.59
2023-01-11T04:15:10.157Z,96309.44
2023-01-11T04:17:36.724Z,96308.69
2023-01-11T04:20:03.382Z,96299.13
2023-01-11T04:22:30.128Z,96303.50
2023-01-11T04:24:56.740Z,96306.03
2023-01-11T04:27:23.999Z,96308.69
2023-01-11T04:29:50.551Z,96316.63
2023-01-11T04:32:17.118Z,96312.31
2023-01-11T04:34:44.446Z,96304.34
2023-01-11T04:37:12.010Z,96294.97
2023-01-11T04:39:38.962Z,96292.41
2023-01-11T04:42:34.678Z,96299.22
2023-01-11T04:45:01.448Z,96300.94
2023-01-11T04:47:28.156Z,96307.94
2023-01-11T04:49:54.749Z,96300.94
2023-01-11T04:52:21.630Z,96299.22
2023-01-11T04:54:48.787Z,96294.13
2023-01-11T04:57:16.920Z,96283.78
2023-01-11T04:59:43.529Z,96298.38
2023-01-11T05:02:13.675Z,96295.06
2023-01-11T05:04:41.314Z,96293.94
2023-01-11T05:07:08.768Z,96297.53
2023-01-11T05:09:35.552Z,96279.38
2023-01-11T05:12:02.886Z,96294.03
2023-01-11T05:14:29.503Z,96284.38
2023-01-11T05:16:56.028Z,96268.78
2023-01-11T05:19:22.879Z,96279.06
2023-01-11T05:21:50.407Z,96284.38
2023-01-11T05:24:17.106Z,96287.09
2023-01-11T05:26:45.445Z,96287.09
2023-01-11T05:29:16.147Z,96289.75
2023-01-11T05:31:43.058Z,96293.38
2023-01-11T05:34:12.346Z,96293.38
2023-01-11T05:36:40.149Z,96289.75
2023-01-11T05:39:06.787Z,96280.28
2023-01-11T05:41:34.008Z,96287.09
2023-01-11T05:44:19.244Z,96287.09
2023-01-11T05:46:45.963Z,96283.69
2023-01-11T05:49:13.714Z,96286.44
2023-01-11T05:51:41.516Z,96285.31
2023-01-11T05:54:12.312Z,96288.06
2023-01-11T05:56:39.477Z,96289.97
2023-01-11T05:59:06.129Z,96292.50
2023-01-11T06:01:33.051Z,96294.22
2023-01-11T06:03:59.626Z,96295.13
2023-01-11T06:06:26.383Z,96288.06
2023-01-11T06:08:52.973Z,96293.38
2023-01-11T06:11:19.605Z,96282.09
2023-01-11T06:13:46.591Z,96280.00
2023-01-11T06:16:15.865Z,96284.47
2023-01-11T06:18:45.534Z,96280.97
2023-01-11T06:21:13.245Z,96271.13
2023-01-11T06:23:42.576Z,96277.34
2023-01-11T06:26:11.609Z,96272.94
2023-01-11T06:28:38.441Z,96260.44
2023-01-11T06:31:05.942Z,96259.59
2023-01-11T06:33:32.816Z,96258.56
2023-01-11T06:36:03.677Z,96257.50
2023-01-11T06:38:30.237Z,96249.56
2023-01-11T06:41:00.382Z,96243.34
2023-01-11T06:43:28.922Z,96249.38
2023-01-11T06:45:55.749Z,96251.06
2023-01-11T06:48:23.189Z,96243.22
2023-01-11T06:50:51.044Z,96242.56
2023-01-11T06:53:18.014Z,96240.84
2023-01-11T06:55:45.251Z,96244.94
2023-01-11T06:58:11.945Z,96248.25
2023-01-11T07:00:38.683Z,96232.44
2023-01-11T07:03:06.908Z,96242.56
2023-01-11T07:05:34.704Z,96245.88
2023-01-11T07:08:01.478Z,96247.56
2023-01-11T07:10:28.165Z,96256.94
2023-01-11T07:12:55.064Z,96251.56
2023-01-11T07:15:23.310Z,96255.72
2023-01-11T07:17:56.933Z,96261.72
2023-01-11T07:20:24.458Z,96262.31
2023-01-11T07:22:51.480Z,96258.31
2023-01-11T07:25:18.635Z,96249.97
2023-01-11T07:27:45.515Z,96256.28
2023-01-11T07:30:12.465Z,96263.88
2023-01-11T07:32:39.312Z,96258.09
2023-01-11T07:35:07.065Z,96250.69
2023-01-11T07:37:34.161Z,96251.16
2023-01-11T07:40:01.109Z,96250.75
2023-01-11T07:42:46.071Z,96248.53
2023-01-11T07:45:12.784Z,96254.50
2023-01-11T07:47:39.365Z,96247.94
2023-01-11T07:50:06.769Z,96250.25
2023-01-11T07:52:33.366Z,96240.38
2023-01-11T07:55:02.630Z,96260.16
2023-01-11T07:57:30.348Z,96249.88
2023-01-11T07:59:57.001Z,96240.53
2023-01-11T08:02:24.059Z,96251.72
2023-01-11T08:04:50.896Z,96249.63
2023-01-11T08:07:17.444Z,96249.19
2023-01-11T08:09:44.989Z,96258.56
2023-01-11T08:12:37.890Z,96248.78
2023-01-11T08:15:05.065Z,96261.34
2023-01-11T08:17:33.843Z,96264.34
2023-01-11T08:20:00.483Z,96269.34
2023-01-11T08:22:27.036Z,96276.88
2023-01-11T08:24:53.673Z,96284.47
2023-01-11T08:27:20.274Z,96289.25
2023-01-11T08:29:46.923Z,96285.31
2023-01-11T08:32:13.451Z,96280.66
2023-01-11T08:34:41.208Z,96284.91
2023-01-11T08:37:07.768Z,96279.28
2023-01-11T08:39:34.601Z,96276.19
2023-01-11T08:42:03.131Z,96281.28
2023-01-11T08:44:34.039Z,96269.38
2023-01-11T08:47:02.543Z,96269.91
2023-01-11T08:49:30.409Z,96271.78
2023-01-11T08:51:57.126Z,96274.78
2023-01-11T08:54:24.776Z,96271.56
2023-01-11T08:56:51.390Z,96283.19
2023-01-11T08:59:19.949Z,96275.69
2023-01-11T09:01:47.203Z,96274.19
2023-01-11T09:04:24.157Z,96266.72
2023-01-11T09:06:53.037Z,96268.09
2023-01-11T09:09:19.912Z,96280.84
2023-01-11T09:11:56.472Z,96274.13
2023-01-11T09:14:24.801Z,96275.38
2023-01-11T09:16:52.057Z,96269.78
2023-01-11T09:19:20.044Z,96272.13
2023-01-11T09:21:46.815Z,96268.38
2023-01-11T09:24:13.725Z,96276.88
2023-01-11T09:26:43.256Z,96281.16
2023-01-11T09:29:11.082Z,96284.47
2023-01-11T09:31:37.813Z,96275.28
2023-01-11T09:34:05.405Z,96267.38
2023-01-11T09:36:33.510Z,96265.97
2023-01-11T09:39:02.130Z,96273.16
2023-01-11T09:41:40.979Z,96283.59
2023-01-11T09:44:16.162Z,96278.41
2023-01-11T09:46:50.077Z,96273.38
2023-01-11T09:49:20.205Z,96278.13
2023-01-11T09:51:47.653Z,96281.03
2023-01-11T09:54:19.147Z,96282.28
2023-01-11T09:56:53.844Z,96279.16
2023-01-11T09:59:34.646Z,96287.50
2023-01-11T10:02:19.518Z,96272.97
2023-01-11T10:05:10.045Z,96270.78
2023-01-11T10:18:31.574Z,96266.41
2023-01-11T10:19:41.291Z,96270.31
2023-01-11T10:22:15.665Z,96268.94
2023-01-11T10:24:52.875Z,96256.47
2023-01-11T10:27:40.348Z,96246.97
2023-01-11T10:30:53.691Z,96242.25
2023-01-11T10:33:52.467Z,96249.78
2023-01-11T10:36:32.861Z,96242.38
2023-01-11T10:39:16.043Z,96242.97
2023-01-11T10:41:57.091Z,96241.00
2023-01-11T10:44:57.689Z,96226.44
2023-01-11T10:47:29.228Z,96231.66
2023-01-11T10:50:05.058Z,96218.19
2023-01-11T10:52:41.417Z,96229.91
2023-01-11T10:55:16.848Z,96226.88
2023-01-11T10:58:01.732Z,96203.78
2023-01-11T11:00:36.079Z,96214.69
2023-01-11T11:03:26.264Z,96204.72
2023-01-11T11:06:00.416Z,96209.69
2023-01-11T11:08:42.582Z,96195.63
2023-01-11T11:11:15.683Z,96219.03
2023-01-11T11:14:10.373Z,96219.75
2023-01-11T11:16:49.251Z,96206.22
2023-01-11T11:19:17.604Z,96195.53
2023-01-11T11:21:44.367Z,96196.84
2023-01-11T11:24:23.241Z,96204.75
2023-01-11T11:26:57.267Z,96193.94
2023-01-11T11:29:30.398Z,96186.66
2023-01-11T11:31:59.109Z,96190.88
2023-01-11T11:34:27.387Z,96190.66
2023-01-11T11:36:55.268Z,96184.19
2023-01-11T11:39:25.678Z,96178.44
2023-01-11T11:41:58.343Z,96178.19
2023-01-11T11:44:28.567Z,96182.16
2023-01-11T11:46:58.801Z,96179.06
2023-01-11T11:49:25.604Z,96177.00
2023-01-11T11:51:52.648Z,96179.41
2023-01-11T11:54:34.364Z,96177.31
2023-01-11T11:57:20.942Z,96181.56
2023-01-11T11:59:49.419Z,96175.22
2023-01-11T12:02:45.162Z,96177.50
2023-01-11T12:05:12.246Z,96175.41
2023-01-11T12:07:54.930Z,96172.56
2023-01-11T12:10:27.269Z,96159.34
2023-01-11T12:13:02.060Z,96170.22
2023-01-11T12:15:31.044Z,96166.44
2023-01-11T12:18:16.699Z,96157.44
2023-01-11T12:20:44.697Z,96155.47
2023-01-11T12:23:24.971Z,96158.59
2023-01-11T12:26:10.322Z,96150.19
2023-01-11T12:28:52.022Z,96147.22
2023-01-11T12:31:24.776Z,96144.41
2023-01-11T12:34:13.579Z,96137.09
2023-01-11T12:36:51.255Z,96126.25
2023-01-11T12:39:30.679Z,96127.53
2023-01-11T12:42:35.302Z,96128.97
2023-01-11T12:45:11.043Z,96134.91
2023-01-11T12:47:59.369Z,96134.72
2023-01-11T12:51:03.335Z,96140.81
2023-01-11T12:53:50.947Z,96140.41
2023-01-11T12:56:45.520Z,96134.75
2023-01-11T12:59:24.681Z,96128.56
2023-01-11T13:01:57.238Z,96114.06
2023-01-11T13:04:41.084Z,96110.63
2023-01-11T13:07:25.963Z,96117.00
2023-01-11T13:10:17.024Z,96116.88
2023-01-11T13:13:37.345Z,96116.72
2023-01-11T13:16:15.254Z,96120.94
2023-01-11T13:18:48.726Z,96123.34
2023-01-11T13:21:35.137Z,96115.16
2023-01-11T13:24:14.583Z,96122.09
2023-01-11T13:26:44.847Z,96138.59
2023-01-11T13:29:16.734Z,96129.28
2023-01-11T13:31:44.747Z,96128.56
2023-01-11T13:34:22.282Z,96132.53
2023-01-11T13:36:54.528Z,96138.34
2023-01-11T13:39:28.471Z,96138.19
2023-01-11T13:41:58.273Z,96129.03
2023-01-11T13:44:28.177Z,96135.94
2023-01-11T13:47:39.886Z,96135.94
2023-01-11T13:50:20.836Z,96136.66
2023-01-11T13:53:10.022Z,96156.00
2023-01-11T13:55:39.674Z,96152.19
2023-01-11T13:58:14.572Z,96150.50
2023-01-11T14:00:45.922Z,96142.88
2023-01-11T14:03:18.618Z,96156.84
2023-01-11T14:06:02.768Z,96148.66
2023-01-11T14:08:45.056Z,96144.16
2023-01-11T14:11:23.307Z,96160.78
2023-01-11T14:14:15.700Z,96164.19
2023-01-11T14:16:54.439Z,96171.94
2023-01-11T14:19:34.724Z,96173.63
2023-01-11T14:22:19.744Z,96178.72
2023-01-11T14:25:15.338Z,96170.53
2023-01-11T14:27:48.359Z,96181.97
2023-01-11T14:30:40.085Z,96173.94
2023-01-11T14:33:06.608Z,96179.16
2023-01-11T14:35:57.874Z,96171.38
2023-01-11T14:38:27.408Z,96176.59
2023-01-11T14:41:22.746Z,96171.25
2023-01-11T14:43:55.450Z,96182.38
2023-01-11T14:46:44.153Z,96187.47
2023-01-11T14:49:42.956Z,96188.31
2023-01-11T14:52:14.817Z,96175.91
2023-01-11T14:54:45.148Z,96162.06
2023-01-11T14:57:38.117Z,96157.38
2023-01-11T15:00:24.696Z,96157.78
2023-01-11T15:03:12.160Z,96143.22
2023-01-11T15:05:46.630Z,96137.84
2023-01-11T15:08:13.194Z,96146.28
2023-01-11T15:10:50.606Z,96140.78
2023-01-11T15:13:27.084Z,96144.53
2023-01-11T15:16:25.568Z,96165.38
2023-01-11T15:18:53.407Z,96161.41
2023-01-11T15:21:23.283Z,96164.66
2023-01-11T15:23:55.618Z,96173.59
2023-01-11T15:26:24.506Z,96186.16
2023-01-11T15:28:57.236Z,96187.19
2023-01-11T15:31:36.616Z,96192.81
2023-01-11T15:34:17.356Z,96205.97
2023-01-11T15:37:16.600Z,96214.03
2023-01-11T15:39:54.644Z,96223.81
2023-01-11T15:42:45.627Z,96221.44
2023-01-11T15:45:27.548Z,96231.59
2023-01-11T15:48:13.112Z,96235.56
2023-01-11T15:50:54.819Z,96243.19
2023-01-11T15:53:42.943Z,96246.44
2023-01-11T15:56:42.871Z,96245.16
2023-01-11T15:59:23.786Z,96249.38
2023-01-11T16:02:02.418Z,96264.94
2023-01-11T16:04:36.687Z,96268.88
2023-01-11T16:07:40.790Z,96260.44
2023-01-11T16:10:31.739Z,96276.78
2023-01-11T16:13:06.311Z,96269.88
2023-01-11T16:16:14.928Z,96277.09
2023-01-11T16:18:48.217Z,96280.59
2023-01-11T16:21:21.298Z,96284.13
2023-01-11T16:23:48.963Z,96287.66
2023-01-11T16:26:20.147Z,96281.88
2023-01-11T16:28:52.840Z,96291.19
2023-01-11T16:31:20.377Z,96293.00
2023-01-11T16:33:49.558Z,96294.00
2023-01-11T16:36:21.164Z,96295.00
2023-01-11T16:39:01.581Z,96293.19
2023-01-11T16:41:39.787Z,96296.97
2023-01-11T16:44:09.210Z,96300.78
2023-01-11T16:47:08.966Z,96298.38
2023-01-11T16:49:35.829Z,96300.34
2023-01-11T16:52:28.105Z,96297.94
2023-01-11T16:54:56.204Z,96303.88
2023-01-11T16:57:28.340Z,96297.63
2023-01-11T17:00:07.055Z,96310.19
2023-01-11T17:02:39.389Z,96308.44
2023-01-11T17:05:21.002Z,96312.00
2023-01-11T17:07:47.972Z,96329.31
2023-01-11T17:10:16.050Z,96338.06
2023-01-11T17:12:49.368Z,96351.03
2023-01-11T17:15:46.598Z,96360.38
2023-01-11T17:18:13.445Z,96365.38
2023-01-11T17:20:40.861Z,96373.13
2023-01-11T17:23:07.612Z,96371.03
2023-01-11T17:25:44.259Z,96371.88
2023-01-11T17:28:19.241Z,96381.63
2023-01-11T17:30:48.136Z,96380.47
2023-01-11T17:33:33.081Z,96381.63
2023-01-11T17:36:00.199Z,96376.53
2023-01-11T17:38:27.663Z,96379.19
2023-01-11T17:40:58.672Z,96381.16
2023-01-11T17:43:48.039Z,96389.22
2023-01-11T17:46:20.551Z,96374.47
2023-01-11T17:48:56.496Z,96371.97
2023-01-11T17:51:23.814Z,96384.47
2023-01-11T17:53:51.606Z,96397.75
2023-01-11T17:56:54.488Z,96400.44
2023-01-11T17:59:24.094Z,96406.63
2023-01-11T18:01:54.094Z,96405.19
2023-01-11T18:04:22.835Z,96412.28
2023-01-11T18:06:53.977Z,96410.56
2023-01-11T18:09:29.374Z,96414.22
2023-01-11T18:12:12.106Z,96411.81
2023-01-11T18:14:41.307Z,96405.59
2023-01-11T18:17:35.115Z,96397.41
2023-01-11T18:20:21.746Z,96405.09
2023-01-11T18:22:54.295Z,96411.56
2023-01-11T18:25:26.199Z,96395.56
2023-01-11T18:28:11.898Z,96416.44
2023-01-11T18:30:45.808Z,96410.38
2023-01-11T18:33:20.008Z,96413.19
2023-01-11T18:35:50.021Z,96420.38
2023-01-11T18:38:23.634Z,96428.53
2023-01-11T18:40:52.008Z,96434.03
2023-01-11T18:43:26.375Z,96441.91
2023-01-11T18:45:54.913Z,96451.78
2023-01-11T18:48:21.967Z,96454.47
2023-01-11T18:50:49.366Z,96458.13
2023-01-11T18:53:16.570Z,96450.94
2023-01-11T18:55:44.716Z,96457.13
2023-01-11T18:58:11.783Z,96456.19
2023-01-11T19:00:38.528Z,96462.50
2023-01-11T19:03:05.529Z,96462.50
2023-01-11T19:05:32.271Z,96456.31
2023-01-11T19:07:59.301Z,96462.63
2023-01-11T19:10:26.731Z,96472.50
2023-01-11T19:12:53.393Z,96464.56
2023-01-11T19:15:20.058Z,96470.09
2023-01-11T19:17:46.705Z,96476.41
2023-01-11T19:20:14.131Z,96469.84
2023-01-11T19:22:40.939Z,96480.19
2023-01-11T19:25:09.493Z,96487.50
2023-01-11T19:27:37.225Z,96483.13
2023-01-11T19:30:05.523Z,96487.75
2023-01-11T19:32:32.133Z,96489.09
2023-01-11T19:34:59.598Z,96501.25
2023-01-11T19:37:27.421Z,96493.50
2023-01-11T19:39:54.114Z,96500.66
2023-01-11T19:42:23.746Z,96497.25
2023-01-11T19:44:51.517Z,96493.25
2023-01-11T19:47:18.412Z,96518.09
2023-01-11T19:49:45.083Z,96510.19
2023-01-11T19:52:14.319Z,96512.09
2023-01-11T19:54:45.045Z,96520.97
2023-01-11T19:57:14.688Z,96519.25
2023-01-11T19:59:41.992Z,96515.41
2023-01-11T20:02:11.141Z,96521.22
2023-01-11T20:04:37.673Z,96519.66
2023-01-11T20:07:04.895Z,96526.00
2023-01-11T20:09:31.964Z,96516.25
2023-01-11T20:11:58.909Z,96528.78
2023-01-11T20:14:25.788Z,96531.69
2023-01-11T20:16:52.449Z,96528.31
2023-01-11T20:19:19.006Z,96539.00
2023-01-11T20:21:45.644Z,96542.41
2023-01-11T20:24:13.492Z,96546.19
2023-01-11T20:26:40.936Z,96542.78
2023-01-11T20:29:07.796Z,96542.06
2023-01-11T20:31:35.532Z,96538.56
2023-01-11T20:34:09.919Z,96547.53
2023-01-11T20:36:36.623Z,96544.13
2023-01-11T20:39:04.301Z,96554.84
2023-01-11T20:41:49.936Z,96556.53
2023-01-11T20:44:19.234Z,96559.19
2023-01-11T20:46:48.156Z,96560.06
2023-01-11T20:49:15.955Z,96565.44
2023-01-11T20:51:43.638Z,96564.69
2023-01-11T20:54:10.962Z,96555.94
2023-01-11T20:56:38.586Z,96540.63
2023-01-11T20:59:06.928Z,96544.53
2023-01-11T21:01:33.554Z,96546.31
2023-01-11T21:04:03.465Z,96532.72
2023-01-11T21:06:31.321Z,96548.88
2023-01-11T21:08:59.861Z,96557.50
2023-01-11T21:11:27.633Z,96546.81
2023-01-11T21:13:55.753Z,96551.28
2023-01-11T21:16:24.507Z,96554.44
2023-01-11T21:19:05.211Z,96553.47
2023-01-11T21:21:33.553Z,96562.09
2023-01-11T21:24:02.361Z,96568.31
2023-01-11T21:26:30.637Z,96564.03
2023-01-11T21:28:59.563Z,96552.28
2023-01-11T21:31:32.112Z,96559.69
2023-01-11T21:33:59.835Z,96553.63
2023-01-11T21:36:27.599Z,96568.34
2023-01-11T21:38:55.471Z,96580.03
2023-01-11T21:41:45.699Z,96585.50
2023-01-11T21:44:13.154Z,96582.09
2023-01-11T21:46:40.162Z,96590.22
2023-01-11T21:49:07.206Z,96588.66
2023-01-11T21:51:34.578Z,96583.53
2023-01-11T21:54:07.120Z,96587.06
2023-01-11T21:56:33.897Z,96595.97
2023-01-11T21:59:00.565Z,96599.38
2023-01-11T22:01:27.705Z,96601.91
2023-01-11T22:03:54.260Z,96601.03
2023-01-11T22:06:20.945Z,96601.91
2023-01-11T22:08:47.761Z,96600.94
2023-01-11T22:11:15.331Z,96607.13
2023-01-11T22:13:42.767Z,96605.31
2023-01-11T22:16:12.832Z,96611.63
2023-01-11T22:18:41.178Z,96618.94
2023-01-11T22:21:17.393Z,96614.53
2023-01-11T22:23:45.275Z,96606.66
2023-01-11T22:26:13.936Z,96608.59
2023-01-11T22:28:59.987Z,96601.53
2023-01-11T22:31:27.890Z,96608.72
2023-01-11T22:33:55.315Z,96609.69
2023-01-11T22:36:23.886Z,96608.00
2023-01-11T22:38:51.295Z,96598.75
2023-01-11T22:41:18.329Z,96615.19
2023-01-11T22:43:45.706Z,96618.06
2023-01-11T22:46:15.134Z,96629.63
2023-01-11T22:48:41.779Z,96623.81
2023-01-11T22:51:09.597Z,96630.00
2023-01-11T22:53:40.196Z,96631.94
2023-01-11T22:56:08.505Z,96632.91
2023-01-11T22:58:36.056Z,96643.59
2023-01-11T23:01:19.121Z,96641.91
2023-01-11T23:03:45.977Z,96649.06
2023-01-11T23:06:15.966Z,96638.72
2023-01-11T23:08:43.287Z,96654.41
2023-01-11T23:11:12.481Z,96643.84
2023-01-11T23:14:01.863Z,96645.78
2023-01-11T23:16:28.664Z,96652.94
2023-01-11T23:18:55.967Z,96651.25
2023-01-11T23:21:22.555Z,96659.28
2023-01-11T23:23:49.761Z,96658.44
2023-01-11T23:26:20.288Z,96659.38
2023-01-11T23:28:48.384Z,96659.38
2023-01-11T23:31:17.723Z,96664.72
2023-01-11T23:33:45.626Z,96658.03
2023-01-11T23:36:12.329Z,96671.91
2023-01-11T23:38:39.282Z,96671.06
2023-01-11T23:41:29.575Z,96667.53
2023-01-11T23:43:57.348Z,96673.84
2023-01-11T23:46:42.989Z,96673.84
2023-01-11T23:49:10.484Z,96666.78
2023-01-11T23:51:37.997Z,96659.75
2023-01-11T23:54:06.611Z,96654.53
2023-01-11T23:56:34.110Z,96653.69
2023-01-11T23:59:00.774Z,96656.34
